Airfield :
LOGIN :

Register | Disclaimer

   EN    FR    IT 

 










Legend :    VFR   Marginal VFR   IFR   Intensive IFR   Very Intensive IFR
Visi :
Ceiling :
>= 8 km
>= 3000ft
5 to 8 km
1000 to 3000 ft
1500m to 5 km
500 to 1000 ft
800 to 1500m
200 to 500 ft
< 800m
< 200 ft
Symbols :   Thunderstorms  Fog  Heavy snow  Heavy precipitations  Wind > 20 kt
SIGMETs :     Misc.  Thunderstorms  Icing  Turbulence  Mountain Waves  Volcanic Ashes






- Airport Elevation : 622 ft
- IATA code : BRS


EGGD - Bristol Int.

CURRENT METAR :
  • 152050Z AUTO 35016KT 9999 BKN015 OVC019 06/03 Q1004

EXPIRED METARs :
  • 152020Z AUTO 35016KT 9999 BKN019 06/03 Q1004
  • 151950Z AUTO 35013KT 9999 SCT022 BKN028 06/03 Q1005
  • 151920Z AUTO 36014KT 9999 SCT019 06/03 Q1005
  • 151850Z AUTO 36013KT 9999 BKN017 06/04 Q1005
  • 151820Z AUTO 35016KT 9999 BKN017 OVC022 07/04 Q1005

TAF TAF EGGD
Valid from the 15 at 18:00 until the 16 at 18:00 UTC


151705Z 1518/1618 36013KT 9999 FEW012 BKN020
TEMPO 1518/1603 01018G28KT
TEMPO 1518/1521 8000 -SHRA BKN011
BECMG 1521/1524 8000 -RA BKN007
TEMPO 1522/1603 3000 RADZ BKN003
BECMG 1603/1606 9999 NSW FEW010 SCT025
TEMPO 1606/1610 7000 BKN006
BECMG 1612/1615 VRB03KT
ATIS : +44 1275 473 666



MET'MAP, your aeronautical weather chart ! - Copyright ORBIFLY December 2007 - Disclaimer

ORBIFLY MET'MAP TEAM :

Programming & Development : Alexandra Zaïnal
Concept & Development : Baudouin d'Aumeries
Co-Development & Prog : Marc-Olivier Méhu
Technical & hardware support : Manuel Goepfert

Contact : metmap@orbifly.com




SOURCES & CREDITS :

   NOAA